Time;durP1;ratioP1;P1;durP2;ratioP2;P2;SDS_P1;SDS_P2;PMS_P1;PMS_P2;Temp;Humidity;BMP_temperature;BMP_pressure;BME280_temperature;BME280_humidity;BME280_pressure;Samples;Min_cycle;Max_cycle;Signal;HPM_P1;HPM_P2
2022/05/05 00:01:59;;;;;;;;;;;;;;;13.87;58.46;101189.25;4395080;32;20047;-69
2022/05/05 00:04:24;;;;;;;;;;;;;;;13.74;58.65;101180.72;4395228;32;20273;-69
2022/05/05 00:06:50;;;;;;;;;;;;;;;13.82;58.68;101192.63;4397906;32;20013;-69
2022/05/05 00:09:16;;;;;;;;;;;;;;;13.91;58.26;101187.88;4396223;32;19993;-69
2022/05/05 00:14:27;;;;;;;;;;;;;;;13.88;58.39;101190.81;4396381;32;19965;-69
2022/05/05 00:16:56;;;;;;;;;;;;;;;13.91;58.39;101187.09;4397742;32;19993;-69
2022/05/05 00:19:21;;;;;;;;;;;;;;;13.79;58.65;101196.34;4398213;32;20028;-69
2022/05/05 00:21:47;;;;;;;;;;;;;;;13.85;58.66;101194.53;4400421;32;19973;-70
2022/05/05 00:24:12;;;;;;;;;;;;;;;13.89;58.46;101193.19;4401207;32;20012;-70
2022/05/05 00:26:38;;;;;;;;;;;;;;;13.86;58.46;101187.62;4401203;32;19954;-70
2022/05/05 00:29:04;;;;;;;;;;;;;;;13.89;58.09;101190.38;4401571;32;19994;-70
2022/05/05 00:31:30;;;;;;;;;;;;;;;13.81;58.42;101194.62;4398779;32;20016;-70
2022/05/05 00:33:56;;;;;;;;;;;;;;;13.78;58.22;101189.09;4398244;32;20010;-70
2022/05/05 00:36:21;;;;;;;;;;;;;;;13.77;58.47;101201.66;4398329;32;20005;-70
2022/05/05 00:38:47;;;;;;;;;;;;;;;13.84;58.19;101198.63;4404184;32;20094;-70
2022/05/05 00:41:13;;;;;;;;;;;;;;;13.82;58.31;101201.91;4401548;32;20320;-70
2022/05/05 00:43:38;;;;;;;;;;;;;;;13.65;58.78;101197.56;4401032;32;19984;-71
2022/05/05 00:46:04;;;;;;;;;;;;;;;13.67;58.92;101199.94;4400493;32;19989;-70
2022/05/05 00:48:29;;;;;;;;;;;;;;;13.78;58.66;101187.06;4393151;32;20528;-70
2022/05/05 00:50:55;;;;;;;;;;;;;;;13.69;58.82;101189.75;4388642;32;20008;-71
2022/05/05 00:53:21;;;;;;;;;;;;;;;13.65;59.16;101191.09;4392436;32;20070;-70
2022/05/05 00:55:48;;;;;;;;;;;;;;;13.60;59.33;101183.19;4395970;32;19998;-70
2022/05/05 00:58:14;;;;;;;;;;;;;;;13.50;59.73;101189.94;4398594;32;21502;-70
2022/05/05 01:00:40;;;;;;;;;;;;;;;13.68;59.10;101195.84;4396645;32;20083;-70
2022/05/05 01:03:08;;;;;;;;;;;;;;;13.62;59.15;101192.78;4392028;32;20359;-70
2022/05/05 01:05:34;;;;;;;;;;;;;;;13.57;59.51;101196.16;4396456;32;20017;-70
2022/05/05 01:07:59;;;;;;;;;;;;;;;13.63;59.31;101202.84;4400787;32;20082;-70
2022/05/05 01:10:25;;;;;;;;;;;;;;;13.64;59.51;101203.66;4408200;32;19950;-70
2022/05/05 01:12:51;;;;;;;;;;;;;;;13.64;59.33;101207.28;4409494;32;20042;-70
2022/05/05 01:15:17;;;;;;;;;;;;;;;13.53;59.69;101206.00;4408565;32;20002;-70
2022/05/05 01:17:43;;;;;;;;;;;;;;;13.59;59.71;101209.84;4408899;32;19980;-70
2022/05/05 01:20:10;;;;;;;;;;;;;;;13.60;59.72;101214.28;4407456;32;20009;-70
2022/05/05 01:22:35;;;;;;;;;;;;;;;13.70;59.43;101207.53;4408588;32;19961;-70
2022/05/05 01:28:17;;;;;;;;;;;;;;;13.64;59.70;101206.47;4408110;32;19966;-70
2022/05/05 01:30:32;;;;;;;;;;;;;;;13.69;59.33;101209.53;4405955;32;19997;-70
2022/05/05 01:32:57;;;;;;;;;;;;;;;13.63;59.58;101204.91;4406152;32;20414;-70
2022/05/05 01:35:23;;;;;;;;;;;;;;;13.65;59.54;101208.06;4408432;32;19972;-70
2022/05/05 01:37:48;;;;;;;;;;;;;;;13.50;60.12;101198.44;4409720;32;20615;-70
2022/05/05 01:40:14;;;;;;;;;;;;;;;13.47;59.88;101211.41;4409605;32;20045;-70
2022/05/05 01:42:41;;;;;;;;;;;;;;;13.55;59.85;101204.31;4408459;32;20005;-70
2022/05/05 01:45:08;;;;;;;;;;;;;;;13.53;59.65;101217.31;4408350;32;20001;-70
2022/05/05 01:47:33;;;;;;;;;;;;;;;13.55;59.50;101217.66;4409390;32;19977;-70
2022/05/05 01:49:59;;;;;;;;;;;;;;;13.56;59.30;101216.44;4410245;32;19989;-70
2022/05/05 01:52:25;;;;;;;;;;;;;;;13.62;59.03;101218.25;4407385;32;20001;-70
2022/05/05 01:54:51;;;;;;;;;;;;;;;13.48;59.47;101215.84;4408093;32;19997;-70
2022/05/05 01:57:16;;;;;;;;;;;;;;;13.46;59.40;101221.13;4409061;32;20460;-70
2022/05/05 01:59:42;;;;;;;;;;;;;;;13.39;59.61;101229.03;4410764;32;20313;-70
2022/05/05 02:02:07;;;;;;;;;;;;;;;13.33;59.82;101225.16;4408663;32;19957;-70
2022/05/05 02:04:33;;;;;;;;;;;;;;;13.35;59.91;101229.09;4394395;32;20002;-70
2022/05/05 02:06:59;;;;;;;;;;;;;;;13.34;59.80;101227.53;4408202;32;19973;-70
2022/05/05 02:09:24;;;;;;;;;;;;;;;13.33;59.33;101234.44;4409493;32;20017;-70
2022/05/05 02:11:50;;;;;;;;;;;;;;;13.48;59.06;101234.81;4406796;32;20023;-70
2022/05/05 02:14:16;;;;;;;;;;;;;;;13.56;58.69;101231.34;4408728;32;19972;-70
2022/05/05 02:16:42;;;;;;;;;;;;;;;13.53;58.76;101234.28;4408008;32;20011;-70
2022/05/05 02:19:08;;;;;;;;;;;;;;;13.46;59.01;101232.44;4407523;32;20005;-70
2022/05/05 02:21:33;;;;;;;;;;;;;;;13.45;59.23;101232.91;4405718;32;19993;-70
2022/05/05 02:23:59;;;;;;;;;;;;;;;13.36;59.31;101232.75;4406630;32;20012;-70
2022/05/05 02:26:24;;;;;;;;;;;;;;;13.25;59.63;101224.53;4407798;32;19988;-70
2022/05/05 02:28:50;;;;;;;;;;;;;;;13.37;59.37;101232.28;4410220;32;20005;-70
2022/05/05 02:31:16;;;;;;;;;;;;;;;13.42;58.96;101231.75;4406023;32;20020;-70
2022/05/05 02:33:42;;;;;;;;;;;;;;;13.29;59.40;101224.47;4406621;32;20009;-70
2022/05/05 02:38:55;;;;;;;;;;;;;;;13.33;59.58;101223.13;4408300;32;20001;-70
2022/05/05 02:41:22;;;;;;;;;;;;;;;13.31;59.58;101236.09;4407787;32;20000;-70
2022/05/05 02:43:48;;;;;;;;;;;;;;;13.32;59.39;101230.00;4405922;32;20087;-70
2022/05/05 02:46:14;;;;;;;;;;;;;;;13.26;59.81;101228.19;4393447;32;20345;-70
2022/05/05 02:48:40;;;;;;;;;;;;;;;13.21;59.88;101232.34;4408361;32;19992;-70
2022/05/05 02:51:05;;;;;;;;;;;;;;;13.18;60.11;101236.06;4406455;32;19995;-70
2022/05/05 02:56:17;;;;;;;;;;;;;;;13.29;59.92;101249.91;4408764;32;20062;-70
2022/05/05 02:58:42;;;;;;;;;;;;;;;13.31;59.88;101244.56;4407346;32;20026;-70
2022/05/05 03:01:08;;;;;;;;;;;;;;;13.09;60.55;101255.66;4391581;32;19976;-70
2022/05/05 03:03:34;;;;;;;;;;;;;;;13.02;60.85;101241.72;4405451;32;20390;-70
2022/05/05 03:06:00;;;;;;;;;;;;;;;13.04;60.67;101246.94;4409957;32;20001;-70
2022/05/05 03:08:26;;;;;;;;;;;;;;;13.10;60.53;101257.25;4392737;32;20725;-70
2022/05/05 03:10:52;;;;;;;;;;;;;;;12.98;61.11;101252.28;4396192;32;19957;-70
2022/05/05 03:13:18;;;;;;;;;;;;;;;12.97;61.12;101247.06;4393939;32;20044;-70
2022/05/05 03:15:44;;;;;;;;;;;;;;;12.96;61.21;101246.28;4394862;32;20016;-70
2022/05/05 03:18:10;;;;;;;;;;;;;;;12.84;61.74;101237.72;4398659;32;20000;-70
2022/05/05 03:20:36;;;;;;;;;;;;;;;12.75;62.27;101238.34;4396488;32;19989;-70
2022/05/05 03:23:02;;;;;;;;;;;;;;;12.86;61.73;101247.34;4395644;32;20027;-70
2022/05/05 03:25:28;;;;;;;;;;;;;;;12.82;61.90;101243.81;4399202;32;20330;-70
2022/05/05 03:27:54;;;;;;;;;;;;;;;12.84;61.77;101252.66;4397358;32;20001;-70
2022/05/05 03:30:19;;;;;;;;;;;;;;;12.96;61.63;101259.63;4396745;32;19953;-70
2022/05/05 03:32:44;;;;;;;;;;;;;;;13.01;61.40;101259.12;4393774;32;19950;-70
2022/05/05 03:35:10;;;;;;;;;;;;;;;13.00;61.34;101261.16;4399468;32;20014;-70
2022/05/05 03:37:35;;;;;;;;;;;;;;;12.81;61.96;101262.00;4393394;32;20389;-70
2022/05/05 03:40:02;;;;;;;;;;;;;;;12.54;62.62;101263.47;4398600;32;20643;-70
2022/05/05 03:42:27;;;;;;;;;;;;;;;12.44;63.20;101265.34;4396755;32;20047;-70
2022/05/05 03:44:52;;;;;;;;;;;;;;;12.46;63.06;101273.38;4396866;32;20203;-70
2022/05/05 03:47:20;;;;;;;;;;;;;;;12.46;62.93;101267.72;4395727;32;20484;-70
2022/05/05 03:49:45;;;;;;;;;;;;;;;12.64;62.50;101268.09;4399505;32;19954;-70
2022/05/05 03:52:12;;;;;;;;;;;;;;;12.41;63.31;101271.84;4400240;32;20005;-69
2022/05/05 03:54:37;;;;;;;;;;;;;;;12.13;64.07;101262.00;4401857;32;19969;-69
2022/05/05 03:57:03;;;;;;;;;;;;;;;11.92;65.15;101276.56;4402540;32;19968;-69
2022/05/05 03:59:29;;;;;;;;;;;;;;;11.90;65.06;101275.41;4401278;32;19990;-69
2022/05/05 04:01:54;;;;;;;;;;;;;;;11.79;65.56;101277.66;4399918;32;19996;-69
2022/05/05 04:04:21;;;;;;;;;;;;;;;11.80;65.40;101282.06;4397479;32;20407;-69
2022/05/05 04:06:47;;;;;;;;;;;;;;;11.76;65.76;101270.84;4399039;32;19962;-69
2022/05/05 04:09:13;;;;;;;;;;;;;;;11.85;65.41;101270.28;4400191;32;20411;-69
2022/05/05 04:11:39;;;;;;;;;;;;;;;11.87;65.24;101271.44;4399651;32;20096;-70
2022/05/05 04:14:04;;;;;;;;;;;;;;;11.95;65.35;101272.88;4399693;32;20006;-69
2022/05/05 04:16:32;;;;;;;;;;;;;;;11.87;65.05;101277.06;4395960;32;20415;-69
2022/05/05 04:18:58;;;;;;;;;;;;;;;11.89;65.13;101276.63;4400098;32;19958;-69
2022/05/05 04:21:24;;;;;;;;;;;;;;;11.91;65.27;101285.47;4398232;32;20343;-69
2022/05/05 04:23:50;;;;;;;;;;;;;;;11.89;65.41;101296.38;4398762;32;20443;-69
2022/05/05 04:26:16;;;;;;;;;;;;;;;11.86;65.76;101291.59;4398247;32;21075;-69
2022/05/05 04:28:43;;;;;;;;;;;;;;;11.90;65.56;101297.97;4399584;32;19997;-70
2022/05/05 04:31:10;;;;;;;;;;;;;;;11.89;65.70;101294.37;4399056;32;20336;-70
2022/05/05 04:33:37;;;;;;;;;;;;;;;11.86;65.69;101297.25;4398566;32;20984;-70
2022/05/05 04:36:02;;;;;;;;;;;;;;;11.96;65.51;101297.03;4400055;32;19965;-70
2022/05/05 04:38:28;;;;;;;;;;;;;;;11.92;65.46;101303.97;4399625;32;20240;-69
2022/05/05 04:40:53;;;;;;;;;;;;;;;12.70;63.13;101308.69;4401372;32;19975;-69
2022/05/05 04:43:19;;;;;;;;;;;;;;;12.84;62.44;101306.31;4398492;32;20401;-69
2022/05/05 04:45:45;;;;;;;;;;;;;;;12.77;62.60;101322.66;4398350;32;19996;-69
2022/05/05 04:48:11;;;;;;;;;;;;;;;12.68;62.76;101319.62;4398560;32;19958;-69
2022/05/05 04:50:36;;;;;;;;;;;;;;;11.95;65.19;101303.91;4400219;32;20308;-69
2022/05/05 04:53:02;;;;;;;;;;;;;;;12.04;65.21;101321.06;4398495;32;20248;-69
2022/05/05 04:55:27;;;;;;;;;;;;;;;12.06;64.78;101318.56;4398490;32;20414;-69
2022/05/05 04:57:53;;;;;;;;;;;;;;;12.04;65.13;101321.06;4397906;32;20384;-69
2022/05/05 05:00:19;;;;;;;;;;;;;;;12.16;64.73;101321.59;4400795;32;20020;-69
2022/05/05 05:02:44;;;;;;;;;;;;;;;12.10;64.54;101324.16;4396691;32;20684;-69
2022/05/05 05:05:10;;;;;;;;;;;;;;;12.13;64.65;101324.06;4398922;32;20023;-69
2022/05/05 05:07:35;;;;;;;;;;;;;;;12.15;65.09;101325.66;4404568;32;19997;-69
2022/05/05 05:10:01;;;;;;;;;;;;;;;12.32;64.48;101327.31;4408983;32;19958;-69
2022/05/05 05:12:27;;;;;;;;;;;;;;;12.40;64.20;101329.56;4395121;32;19995;-69
2022/05/05 05:14:53;;;;;;;;;;;;;;;12.51;63.75;101332.13;4397280;32;20034;-69
2022/05/05 05:17:21;;;;;;;;;;;;;;;12.61;63.32;101326.22;4409485;32;20441;-69
2022/05/05 05:19:47;;;;;;;;;;;;;;;12.68;63.43;101337.38;4409730;32;20398;-69
2022/05/05 05:22:12;;;;;;;;;;;;;;;12.71;63.22;101344.97;4407455;32;20112;-69
2022/05/05 05:24:38;;;;;;;;;;;;;;;12.87;62.50;101341.38;4410945;32;20029;-69
2022/05/05 05:27:04;;;;;;;;;;;;;;;12.77;62.89;101350.88;4408590;32;19993;-69
2022/05/05 05:29:30;;;;;;;;;;;;;;;12.86;63.03;101348.25;4408622;32;20564;-69
2022/05/05 05:31:56;;;;;;;;;;;;;;;13.01;62.34;101350.31;4408124;32;19965;-69
2022/05/05 05:34:21;;;;;;;;;;;;;;;13.03;62.18;101353.50;4408662;32;20454;-69
2022/05/05 05:36:49;;;;;;;;;;;;;;;13.11;61.77;101357.75;4408025;32;20052;-69
2022/05/05 05:39:17;;;;;;;;;;;;;;;13.15;61.82;101355.63;4410423;32;19968;-69
2022/05/05 05:41:43;;;;;;;;;;;;;;;13.18;61.87;101356.78;4407788;32;19954;-69
2022/05/05 05:44:08;;;;;;;;;;;;;;;13.21;61.32;101353.06;4410416;32;19982;-70
2022/05/05 05:46:34;;;;;;;;;;;;;;;13.34;61.47;101363.22;4409859;32;19976;-69
2022/05/05 05:49:00;;;;;;;;;;;;;;;13.43;61.47;101362.59;4409259;32;20081;-69
2022/05/05 05:51:25;;;;;;;;;;;;;;;13.49;60.47;101364.44;4408399;32;19995;-70
2022/05/05 05:53:52;;;;;;;;;;;;;;;13.46;60.83;101373.00;4407804;32;19994;-70
2022/05/05 05:56:17;;;;;;;;;;;;;;;13.52;60.68;101369.22;4410432;32;20377;-70
2022/05/05 05:58:43;;;;;;;;;;;;;;;13.84;59.92;101371.97;4410820;32;20386;-70
2022/05/05 06:01:09;;;;;;;;;;;;;;;13.90;59.79;101373.03;4393239;32;20009;-70
2022/05/05 06:04:06;;;;;;;;;;;;;;;13.85;60.20;101370.75;4409196;32;20013;-70
2022/05/05 06:06:21;;;;;;;;;;;;;;;13.91;59.97;101371.00;4409453;32;19995;-70
2022/05/05 06:08:46;;;;;;;;;;;;;;;14.08;59.72;101366.88;4408263;32;20299;-70
2022/05/05 06:11:13;;;;;;;;;;;;;;;14.29;59.51;101371.19;4410809;32;19953;-70
2022/05/05 06:13:39;;;;;;;;;;;;;;;14.30;59.19;101372.75;4405354;32;20008;-70
2022/05/05 06:16:06;;;;;;;;;;;;;;;14.32;58.89;101376.72;4408703;32;20375;-70
2022/05/05 06:18:32;;;;;;;;;;;;;;;14.42;58.43;101384.09;4410583;32;20264;-70
2022/05/05 06:20:58;;;;;;;;;;;;;;;14.72;57.79;101382.78;4408164;32;19976;-70
2022/05/05 06:23:24;;;;;;;;;;;;;;;14.94;57.38;101393.00;4409371;32;20088;-70
2022/05/05 06:25:50;;;;;;;;;;;;;;;15.11;57.00;101396.53;4408278;32;20030;-70
2022/05/05 06:28:16;;;;;;;;;;;;;;;15.19;56.71;101393.00;4408909;32;20394;-70
2022/05/05 06:30:41;;;;;;;;;;;;;;;15.25;56.82;101396.88;4407087;32;20005;-69
2022/05/05 06:33:07;;;;;;;;;;;;;;;15.40;56.37;101402.91;4404222;32;20091;-70
2022/05/05 06:35:32;;;;;;;;;;;;;;;15.57;55.48;101404.34;4404933;32;19996;-69
2022/05/05 06:37:58;;;;;;;;;;;;;;;15.68;54.93;101405.56;4406619;32;20037;-70
2022/05/05 06:40:24;;;;;;;;;;;;;;;15.43;55.97;101397.09;4402425;32;19965;-70
2022/05/05 06:42:50;;;;;;;;;;;;;;;15.77;54.83;101397.13;4401848;32;20027;-69
2022/05/05 06:45:16;;;;;;;;;;;;;;;15.94;54.95;101401.41;4391157;32;21260;-70
2022/05/05 06:47:41;;;;;;;;;;;;;;;16.08;54.38;101402.97;4402727;32;20683;-70
2022/05/05 06:50:07;;;;;;;;;;;;;;;16.25;53.95;101407.19;4398834;32;20004;-70
2022/05/05 06:52:33;;;;;;;;;;;;;;;15.98;55.24;101409.00;4396260;32;20005;-70
2022/05/05 06:55:00;;;;;;;;;;;;;;;16.58;53.41;101407.59;4401240;32;20359;-70
2022/05/05 06:57:26;;;;;;;;;;;;;;;16.79;52.54;101412.47;4405163;32;20520;-70
2022/05/05 06:59:51;;;;;;;;;;;;;;;17.40;50.64;101407.53;4402530;32;20001;-70
2022/05/05 07:02:18;;;;;;;;;;;;;;;17.56;50.37;101415.03;4402471;32;20008;-70
2022/05/05 07:07:30;;;;;;;;;;;;;;;17.92;49.13;101408.62;4393023;32;20339;-70
2022/05/05 07:12:41;;;;;;;;;;;;;;;18.13;49.42;101417.00;4403199;32;19965;-70
2022/05/05 07:15:07;;;;;;;;;;;;;;;18.14;48.49;101409.25;4399928;32;21343;-70
2022/05/05 07:17:33;;;;;;;;;;;;;;;18.40;48.33;101417.03;4392627;32;19962;-70
2022/05/05 07:19:59;;;;;;;;;;;;;;;18.46;48.28;101423.69;4399846;32;20006;-70
2022/05/05 07:22:25;;;;;;;;;;;;;;;18.45;48.28;101436.34;4402843;32;20276;-70
2022/05/05 07:24:50;;;;;;;;;;;;;;;18.21;48.35;101428.88;4405366;32;20473;-70
2022/05/05 07:27:17;;;;;;;;;;;;;;;18.27;48.47;101427.78;4408923;32;20023;-70
2022/05/05 07:29:43;;;;;;;;;;;;;;;18.46;48.51;101432.22;4408217;32;20323;-70
2022/05/05 07:32:09;;;;;;;;;;;;;;;18.49;48.07;101427.63;4404762;32;19962;-70
2022/05/05 07:34:35;;;;;;;;;;;;;;;18.59;47.78;101434.91;4403276;32;19976;-70
2022/05/05 07:37:01;;;;;;;;;;;;;;;17.89;48.84;101433.91;4406722;32;20410;-70
2022/05/05 07:39:26;;;;;;;;;;;;;;;17.97;48.96;101440.09;4409332;32;20092;-70
2022/05/05 07:41:53;;;;;;;;;;;;;;;17.68;49.60;101448.28;4405573;32;19977;-70
2022/05/05 07:44:18;;;;;;;;;;;;;;;17.69;49.85;101444.97;4408508;32;20668;-70
2022/05/05 07:46:44;;;;;;;;;;;;;;;18.14;48.34;101449.94;4397547;32;20000;-71
2022/05/05 07:49:09;;;;;;;;;;;;;;;17.95;49.20;101447.53;4410619;32;20065;-69
2022/05/05 07:51:35;;;;;;;;;;;;;;;18.48;47.69;101448.84;4406046;32;20252;-71
2022/05/05 07:56:47;;;;;;;;;;;;;;;19.11;46.43;101449.50;4411533;32;20062;-71
2022/05/05 07:59:13;;;;;;;;;;;;;;;19.35;46.31;101461.81;4412194;32;20009;-72
2022/05/05 08:01:39;;;;;;;;;;;;;;;19.07;46.29;101462.38;4396432;32;20012;-72
2022/05/05 08:04:04;;;;;;;;;;;;;;;19.02;46.13;101454.47;4396099;32;20523;-71
2022/05/05 08:06:31;;;;;;;;;;;;;;;18.97;46.55;101469.38;4406729;32;20339;-71
2022/05/05 08:08:56;;;;;;;;;;;;;;;18.96;46.24;101467.81;4414358;32;20329;-71
2022/05/05 08:11:22;;;;;;;;;;;;;;;19.15;46.21;101466.47;4407128;32;19997;-71
2022/05/05 08:13:48;;;;;;;;;;;;;;;19.04;46.76;101472.69;4405579;32;20062;-71
2022/05/05 08:16:13;;;;;;;;;;;;;;;19.56;45.48;101471.41;4407492;32;20424;-71
2022/05/05 08:18:39;;;;;;;;;;;;;;;20.16;43.81;101474.09;4407201;32;20355;-71
2022/05/05 08:21:05;;;;;;;;;;;;;;;20.64;42.69;101479.25;4403078;32;20394;-70
2022/05/05 08:23:32;;;;;;;;;;;;;;;20.42;43.13;101478.81;4407866;32;20048;-71
2022/05/05 08:28:43;;;;;;;;;;;;;;;20.12;43.28;101479.19;4410716;32;19962;-70
2022/05/05 08:31:10;;;;;;;;;;;;;;;20.16;43.12;101480.63;4407148;32;19968;-71
2022/05/05 08:33:36;;;;;;;;;;;;;;;20.23;43.25;101479.44;4407650;32;21470;-70
2022/05/05 08:36:02;;;;;;;;;;;;;;;20.21;43.07;101477.06;4404776;32;20005;-70
2022/05/05 08:38:28;;;;;;;;;;;;;;;20.33;42.65;101478.09;4407710;32;19989;-70
2022/05/05 08:40:54;;;;;;;;;;;;;;;20.10;43.40;101488.25;4409429;32;20023;-70
2022/05/05 08:43:19;;;;;;;;;;;;;;;20.20;43.22;101491.84;4409426;32;20033;-71
2022/05/05 08:45:45;;;;;;;;;;;;;;;20.53;42.98;101481.09;4408268;32;19954;-71
2022/05/05 08:48:12;;;;;;;;;;;;;;;20.63;42.52;101486.25;4407785;32;20001;-72
2022/05/05 08:50:38;;;;;;;;;;;;;;;21.33;41.35;101487.31;4407098;32;21062;-72
2022/05/05 08:53:05;;;;;;;;;;;;;;;21.49;40.76;101490.44;4409337;32;20349;-72
2022/05/05 08:55:31;;;;;;;;;;;;;;;21.79;40.28;101490.41;4408325;32;20101;-71
2022/05/05 08:57:57;;;;;;;;;;;;;;;22.33;39.63;101484.63;4408011;32;20015;-72
2022/05/05 09:00:24;;;;;;;;;;;;;;;22.74;38.68;101485.44;4412035;32;20031;-72
2022/05/05 09:02:54;;;;;;;;;;;;;;;22.78;38.64;101478.16;4407097;32;20295;-71
2022/05/05 09:05:41;;;;;;;;;;;;;;;22.82;38.51;101483.66;4406089;32;20029;-72
2022/05/05 09:08:06;;;;;;;;;;;;;;;22.82;38.23;101490.22;4407943;32;19993;-72
2022/05/05 09:10:48;;;;;;;;;;;;;;;23.24;37.48;101484.66;4408924;32;20008;-72
2022/05/05 09:13:20;;;;;;;;;;;;;;;23.75;37.28;101488.69;4403282;32;20319;-72
2022/05/05 09:15:46;;;;;;;;;;;;;;;24.23;36.30;101489.53;4407320;32;20393;-72
2022/05/05 09:20:49;;;;;;;;;;;;;;;24.50;35.27;101491.75;3944433;32;15749214;-70
2022/05/05 09:26:06;;;;;;;;;;;;;;;23.89;36.73;101493.47;3936431;32;15912462;-72
2022/05/05 09:28:35;;;;;;;;;;;;;;;23.89;36.73;101493.47;4412383;32;20581;-72
2022/05/05 09:31:03;;;;;;;;;;;;;;;23.46;37.58;101493.47;4408588;32;20425;-72
2022/05/05 09:36:15;;;;;;;;;;;;;;;23.97;36.33;101506.12;3935337;32;15722360;-73
2022/05/05 09:38:58;;;;;;;;;;;;;;;23.97;36.33;101506.12;4399746;32;19960;-70
2022/05/05 09:41:25;;;;;;;;;;;;;;;23.88;36.56;101498.47;4409881;32;20114;-70
2022/05/05 09:43:53;;;;;;;;;;;;;;;23.89;36.41;101500.03;4394049;32;20343;-70
2022/05/05 09:49:07;;;;;;;;;;;;;;;25.27;33.68;101498.09;3944113;32;15746542;-71
2022/05/05 09:51:35;;;;;;;;;;;;;;;25.27;33.67;101501.37;4417170;32;20431;-71
2022/05/05 09:59:39;;;;;;;;;;;;;;;25.28;32.34;101493.53;4421188;32;19968;-72
2022/05/05 10:02:12;;;;;;;;;;;;;;;25.82;30.94;101488.25;4417855;32;20308;-72
2022/05/05 10:04:39;;;;;;;;;;;;;;;26.03;31.04;101489.56;4417541;32;20117;-72
2022/05/05 10:07:06;;;;;;;;;;;;;;;26.82;30.28;101487.41;4421779;32;20452;-73
2022/05/05 10:09:32;;;;;;;;;;;;;;;27.13;30.40;101486.94;4411198;32;20719;-70
2022/05/05 10:11:58;;;;;;;;;;;;;;;26.74;30.90;101476.94;4417674;32;19984;-71
2022/05/05 10:14:25;;;;;;;;;;;;;;;26.92;31.13;101490.75;4420773;32;19985;-72
2022/05/05 10:16:51;;;;;;;;;;;;;;;26.58;31.78;101483.59;4421264;32;19973;-71
2022/05/05 10:19:18;;;;;;;;;;;;;;;26.97;31.15;101496.50;4422745;32;19960;-70
2022/05/05 10:22:03;;;;;;;;;;;;;;;26.56;31.40;101487.00;4420424;32;19961;-72
2022/05/05 10:24:30;;;;;;;;;;;;;;;26.46;31.70;101482.06;4418846;32;20445;-70
2022/05/05 10:26:57;;;;;;;;;;;;;;;26.27;32.12;101490.53;4421207;32;20046;-70
2022/05/05 10:29:39;;;;;;;;;;;;;;;26.71;31.68;101483.78;4423137;32;20001;-71
2022/05/05 10:32:12;;;;;;;;;;;;;;;26.79;31.16;101493.47;4417554;32;20519;-71
2022/05/05 10:34:39;;;;;;;;;;;;;;;27.54;30.42;101489.00;4419622;32;20051;-71
2022/05/05 10:37:06;;;;;;;;;;;;;;;27.98;29.35;101497.28;4414851;32;19986;-72
2022/05/05 10:50:52;;;;;;;;;;;;;;;27.07;30.63;101515.09;3945803;32;15722487;-73
2022/05/05 10:53:39;;;;;;;;;;;;;;;27.07;30.63;101515.09;4418977;32;19992;-73
2022/05/05 10:56:06;;;;;;;;;;;;;;;26.68;30.83;101502.19;4424074;32;19967;-73
2022/05/05 10:58:51;;;;;;;;;;;;;;;27.05;29.79;101511.16;4422551;32;19996;-72
2022/05/05 11:01:18;;;;;;;;;;;;;;;27.82;28.96;101504.00;4414116;32;20310;-74
2022/05/05 11:04:04;;;;;;;;;;;;;;;28.03;27.80;101508.00;4413681;32;19993;-73
2022/05/05 11:06:32;;;;;;;;;;;;;;;29.05;26.48;101507.81;4403438;32;20008;-73
2022/05/05 11:08:58;;;;;;;;;;;;;;;29.09;26.77;101511.16;4405713;32;19981;-73
2022/05/05 11:11:55;;;;;;;;;;;;;;;28.81;26.67;101511.56;4419404;32;20041;-74
2022/05/05 11:21:32;;;;;;;;;;;;;;;28.26;27.93;101504.31;4415110;32;20410;-74
2022/05/05 11:22:46;;;;;;;;;;;;;;;28.96;27.39;101506.84;4413903;32;20378;-73
2022/05/05 11:25:11;;;;;;;;;;;;;;;28.67;28.04;101507.78;4419431;32;19976;-74
2022/05/05 11:27:37;;;;;;;;;;;;;;;27.45;29.54;101510.38;4419064;32;20017;-73
2022/05/05 11:30:03;;;;;;;;;;;;;;;28.61;28.39;101515.78;4419164;32;20064;-73
2022/05/05 11:32:30;;;;;;;;;;;;;;;28.78;28.07;101521.34;4419273;32;19964;-73
2022/05/05 11:34:56;;;;;;;;;;;;;;;29.24;27.00;101514.38;4419570;32;20001;-74
2022/05/05 11:37:25;;;;;;;;;;;;;;;29.98;26.25;101517.84;4415090;32;19973;-74
2022/05/05 11:39:50;;;;;;;;;;;;;;;30.14;25.92;101524.66;4418112;32;19995;-73
2022/05/05 11:42:18;;;;;;;;;;;;;;;30.19;25.77;101527.47;4418963;32;19996;-73
2022/05/05 11:44:45;;;;;;;;;;;;;;;29.78;26.37;101517.69;4418808;32;20440;-73
2022/05/05 11:47:20;;;;;;;;;;;;;;;30.53;25.81;101510.19;4419649;32;20025;-73
2022/05/05 11:49:46;;;;;;;;;;;;;;;31.54;24.45;101511.00;4418737;32;20680;-72
2022/05/05 11:52:15;;;;;;;;;;;;;;;32.21;23.94;101512.97;4416337;32;20401;-72
2022/05/05 11:54:44;;;;;;;;;;;;;;;30.93;25.03;101514.59;4416576;32;19997;-72
2022/05/05 11:57:11;;;;;;;;;;;;;;;31.27;24.76;101520.41;4419391;32;19997;-72
2022/05/05 12:02:24;;;;;;;;;;;;;;;29.22;27.13;101517.03;4407179;32;20003;-73
2022/05/05 12:04:53;;;;;;;;;;;;;;;28.04;27.58;101521.16;4409034;32;20016;-72
2022/05/05 12:07:20;;;;;;;;;;;;;;;27.88;28.00;101525.78;4406962;32;20955;-72
2022/05/05 12:09:46;;;;;;;;;;;;;;;28.11;27.94;101514.75;4407813;32;20436;-72
2022/05/05 12:12:14;;;;;;;;;;;;;;;28.38;27.78;101514.44;4407720;32;20334;-71
2022/05/05 12:14:42;;;;;;;;;;;;;;;28.78;27.48;101515.53;4410763;32;20005;-72
2022/05/05 12:17:11;;;;;;;;;;;;;;;28.11;28.16;101512.66;4410678;32;20000;-72
2022/05/05 12:19:46;;;;;;;;;;;;;;;29.24;26.70;101515.16;4397858;32;20003;-72
2022/05/05 12:22:12;;;;;;;;;;;;;;;29.23;26.56;101512.81;4411591;32;20004;-72
2022/05/05 12:24:42;;;;;;;;;;;;;;;30.24;25.56;101522.91;4411999;32;20298;-70
2022/05/05 12:27:10;;;;;;;;;;;;;;;29.88;26.15;101516.69;4408880;32;20448;-70
2022/05/05 12:29:37;;;;;;;;;;;;;;;29.57;26.79;101510.94;4411834;32;19976;-71
2022/05/05 12:32:03;;;;;;;;;;;;;;;29.81;26.62;101517.38;4412494;32;20020;-72
2022/05/05 12:34:29;;;;;;;;;;;;;;;29.61;26.48;101520.88;4408942;32;19973;-72
2022/05/05 12:37:15;;;;;;;;;;;;;;;28.96;26.92;101520.56;4410268;32;20020;-73
2022/05/05 12:39:48;;;;;;;;;;;;;;;28.06;28.09;101524.28;4410614;32;20037;-72
2022/05/05 12:42:14;;;;;;;;;;;;;;;27.61;29.27;101529.69;4412632;32;19992;-71
2022/05/05 12:44:44;;;;;;;;;;;;;;;27.50;29.41;101520.31;4410176;32;19988;-71
2022/05/05 12:47:09;;;;;;;;;;;;;;;27.58;29.07;101524.97;4409445;32;19980;-70
2022/05/05 12:49:36;;;;;;;;;;;;;;;28.01;29.62;101531.69;4406664;32;20007;-72
2022/05/05 12:52:03;;;;;;;;;;;;;;;29.54;27.82;101524.41;4411224;32;21106;-71
2022/05/05 12:59:59;;;;;;;;;;;;;;;30.86;25.60;101524.00;4408598;32;20034;-72
2022/05/05 13:02:26;;;;;;;;;;;;;;;30.70;24.66;101522.22;4406363;32;20073;-72
2022/05/05 13:04:52;;;;;;;;;;;;;;;31.21;24.79;101529.28;4410557;32;20328;-72
2022/05/05 13:07:19;;;;;;;;;;;;;;;31.85;24.20;101530.34;4408739;32;20022;-72
2022/05/05 13:09:44;;;;;;;;;;;;;;;31.68;24.48;101538.69;4406142;32;20924;-72
2022/05/05 13:12:10;;;;;;;;;;;;;;;31.18;25.37;101536.22;4405685;32;20023;-72
2022/05/05 13:14:36;;;;;;;;;;;;;;;31.15;25.38;101531.53;4408021;32;19975;-72
2022/05/05 13:17:03;;;;;;;;;;;;;;;30.48;26.07;101538.00;4411517;32;19966;-72
2022/05/05 13:19:29;;;;;;;;;;;;;;;29.12;27.70;101530.38;4409223;32;19958;-72
2022/05/05 13:21:55;;;;;;;;;;;;;;;28.40;28.99;101534.94;4405825;32;20045;-72
2022/05/05 13:24:20;;;;;;;;;;;;;;;27.84;29.85;101539.75;4408676;32;19981;-72
2022/05/05 13:26:46;;;;;;;;;;;;;;;26.67;31.69;101521.63;4409512;32;20001;-71
2022/05/05 13:29:13;;;;;;;;;;;;;;;26.43;31.90;101533.00;4406582;32;20409;-71
2022/05/05 13:31:38;;;;;;;;;;;;;;;26.52;32.21;101529.00;4402368;32;20574;-71
2022/05/05 13:34:04;;;;;;;;;;;;;;;26.46;30.67;101539.78;4408226;32;19965;-70
2022/05/05 13:36:29;;;;;;;;;;;;;;;26.44;30.78;101540.31;4406425;32;20505;-70
2022/05/05 13:38:55;;;;;;;;;;;;;;;26.79;29.84;101549.13;4410575;32;21489;-69